sensor_id;sensor_type;location;lat;lon;timestamp;P1;durP1;ratioP1;P2;durP2;ratioP2
40122;SDS011;25832;45.490;4.912;2023-04-08T00:00:35;16.00;;;12.00;;
40122;SDS011;25832;45.490;4.912;2023-04-08T00:03:01;9.00;;;4.70;;
40122;SDS011;25832;45.490;4.912;2023-04-08T00:05:27;6.45;;;3.33;;
40122;SDS011;25832;45.490;4.912;2023-04-08T00:07:53;6.13;;;3.60;;
40122;SDS011;25832;45.490;4.912;2023-04-08T00:10:19;8.73;;;3.67;;
40122;SDS011;25832;45.490;4.912;2023-04-08T00:12:46;8.45;;;5.07;;
40122;SDS011;25832;45.490;4.912;2023-04-08T00:15:12;10.25;;;8.07;;
40122;SDS011;25832;45.490;4.912;2023-04-08T00:17:37;7.20;;;5.22;;
40122;SDS011;25832;45.490;4.912;2023-04-08T00:20:04;8.13;;;4.82;;
40122;SDS011;25832;45.490;4.912;2023-04-08T00:22:30;8.38;;;5.97;;
40122;SDS011;25832;45.490;4.912;2023-04-08T00:24:56;11.77;;;4.10;;
40122;SDS011;25832;45.490;4.912;2023-04-08T00:27:22;5.93;;;3.63;;
40122;SDS011;25832;45.490;4.912;2023-04-08T00:29:49;4.85;;;2.83;;
40122;SDS011;25832;45.490;4.912;2023-04-08T00:32:15;5.78;;;3.58;;
40122;SDS011;25832;45.490;4.912;2023-04-08T00:34:41;8.25;;;3.95;;
40122;SDS011;25832;45.490;4.912;2023-04-08T00:37:07;5.68;;;3.33;;
40122;SDS011;25832;45.490;4.912;2023-04-08T00:39:33;5.57;;;3.67;;
40122;SDS011;25832;45.490;4.912;2023-04-08T00:41:59;5.55;;;3.38;;
40122;SDS011;25832;45.490;4.912;2023-04-08T00:44:26;7.13;;;4.22;;
40122;SDS011;25832;45.490;4.912;2023-04-08T00:46:52;9.55;;;5.28;;
40122;SDS011;25832;45.490;4.912;2023-04-08T00:49:17;9.38;;;5.82;;
40122;SDS011;25832;45.490;4.912;2023-04-08T00:51:44;10.65;;;7.30;;
40122;SDS011;25832;45.490;4.912;2023-04-08T00:54:09;6.85;;;3.83;;
40122;SDS011;25832;45.490;4.912;2023-04-08T00:56:35;7.38;;;3.72;;
40122;SDS011;25832;45.490;4.912;2023-04-08T00:59:02;6.55;;;3.15;;
40122;SDS011;25832;45.490;4.912;2023-04-08T01:04:20;6.60;;;2.95;;
40122;SDS011;25832;45.490;4.912;2023-04-08T01:09:52;7.53;;;2.92;;
40122;SDS011;25832;45.490;4.912;2023-04-08T01:12:27;5.85;;;2.88;;
40122;SDS011;25832;45.490;4.912;2023-04-08T01:14:56;5.32;;;3.33;;
40122;SDS011;25832;45.490;4.912;2023-04-08T01:17:30;5.55;;;3.42;;
40122;SDS011;25832;45.490;4.912;2023-04-08T01:19:58;5.05;;;2.80;;
40122;SDS011;25832;45.490;4.912;2023-04-08T01:22:27;9.63;;;3.78;;
40122;SDS011;25832;45.490;4.912;2023-04-08T01:25:21;7.45;;;4.40;;
40122;SDS011;25832;45.490;4.912;2023-04-08T01:27:50;5.43;;;2.70;;
40122;SDS011;25832;45.490;4.912;2023-04-08T01:30:21;9.05;;;2.83;;
40122;SDS011;25832;45.490;4.912;2023-04-08T01:32:49;4.68;;;2.58;;
40122;SDS011;25832;45.490;4.912;2023-04-08T01:35:19;6.25;;;3.17;;
40122;SDS011;25832;45.490;4.912;2023-04-08T01:37:45;7.40;;;2.92;;
40122;SDS011;25832;45.490;4.912;2023-04-08T01:40:13;3.70;;;2.58;;
40122;SDS011;25832;45.490;4.912;2023-04-08T01:42:40;5.57;;;2.55;;
40122;SDS011;25832;45.490;4.912;2023-04-08T01:45:07;6.47;;;3.22;;
40122;SDS011;25832;45.490;4.912;2023-04-08T01:47:34;5.47;;;3.40;;
40122;SDS011;25832;45.490;4.912;2023-04-08T01:50:02;5.35;;;2.90;;
40122;SDS011;25832;45.490;4.912;2023-04-08T01:52:29;7.82;;;3.10;;
40122;SDS011;25832;45.490;4.912;2023-04-08T01:54:56;6.15;;;3.10;;
40122;SDS011;25832;45.490;4.912;2023-04-08T01:57:26;5.97;;;2.67;;
40122;SDS011;25832;45.490;4.912;2023-04-08T01:59:57;3.58;;;2.50;;
40122;SDS011;25832;45.490;4.912;2023-04-08T02:02:25;5.63;;;2.70;;
40122;SDS011;25832;45.490;4.912;2023-04-08T02:04:52;4.35;;;2.33;;
40122;SDS011;25832;45.490;4.912;2023-04-08T02:07:18;3.17;;;2.15;;
40122;SDS011;25832;45.490;4.912;2023-04-08T02:09:44;5.00;;;2.85;;
40122;SDS011;25832;45.490;4.912;2023-04-08T02:12:10;3.67;;;2.60;;
40122;SDS011;25832;45.490;4.912;2023-04-08T02:14:36;5.20;;;2.80;;
40122;SDS011;25832;45.490;4.912;2023-04-08T02:17:11;5.03;;;2.97;;
40122;SDS011;25832;45.490;4.912;2023-04-08T02:19:51;4.90;;;2.83;;
40122;SDS011;25832;45.490;4.912;2023-04-08T02:22:30;8.50;;;3.03;;
40122;SDS011;25832;45.490;4.912;2023-04-08T02:25:00;4.00;;;2.78;;
40122;SDS011;25832;45.490;4.912;2023-04-08T02:27:33;5.97;;;3.22;;
40122;SDS011;25832;45.490;4.912;2023-04-08T02:29:59;6.22;;;3.22;;
40122;SDS011;25832;45.490;4.912;2023-04-08T02:32:28;5.70;;;3.17;;
40122;SDS011;25832;45.490;4.912;2023-04-08T02:34:56;5.55;;;3.42;;
40122;SDS011;25832;45.490;4.912;2023-04-08T02:37:25;5.53;;;3.05;;
40122;SDS011;25832;45.490;4.912;2023-04-08T02:39:52;6.53;;;3.40;;
40122;SDS011;25832;45.490;4.912;2023-04-08T02:42:18;6.32;;;3.67;;
40122;SDS011;25832;45.490;4.912;2023-04-08T02:44:43;5.43;;;3.25;;
40122;SDS011;25832;45.490;4.912;2023-04-08T02:47:09;9.65;;;3.67;;
40122;SDS011;25832;45.490;4.912;2023-04-08T02:49:35;7.80;;;4.72;;
40122;SDS011;25832;45.490;4.912;2023-04-08T02:52:01;6.65;;;4.20;;
40122;SDS011;25832;45.490;4.912;2023-04-08T02:54:26;7.38;;;3.55;;
40122;SDS011;25832;45.490;4.912;2023-04-08T02:56:52;6.60;;;3.75;;
40122;SDS011;25832;45.490;4.912;2023-04-08T02:59:18;5.25;;;3.08;;
40122;SDS011;25832;45.490;4.912;2023-04-08T03:01:43;5.63;;;3.95;;
40122;SDS011;25832;45.490;4.912;2023-04-08T03:04:09;5.68;;;3.75;;
40122;SDS011;25832;45.490;4.912;2023-04-08T03:06:35;6.10;;;3.88;;
40122;SDS011;25832;45.490;4.912;2023-04-08T03:09:00;5.88;;;3.67;;
40122;SDS011;25832;45.490;4.912;2023-04-08T03:11:26;5.25;;;3.67;;
40122;SDS011;25832;45.490;4.912;2023-04-08T03:13:52;9.68;;;3.83;;
40122;SDS011;25832;45.490;4.912;2023-04-08T03:16:17;7.63;;;3.70;;
40122;SDS011;25832;45.490;4.912;2023-04-08T03:18:43;6.63;;;3.47;;
40122;SDS011;25832;45.490;4.912;2023-04-08T03:21:09;5.40;;;3.05;;
40122;SDS011;25832;45.490;4.912;2023-04-08T03:23:35;9.75;;;3.78;;
40122;SDS011;25832;45.490;4.912;2023-04-08T03:26:00;17.17;;;4.60;;
40122;SDS011;25832;45.490;4.912;2023-04-08T03:28:26;7.13;;;4.15;;
40122;SDS011;25832;45.490;4.912;2023-04-08T03:30:51;6.95;;;4.15;;
40122;SDS011;25832;45.490;4.912;2023-04-08T03:33:17;6.90;;;4.05;;
40122;SDS011;25832;45.490;4.912;2023-04-08T03:35:43;7.40;;;3.95;;
40122;SDS011;25832;45.490;4.912;2023-04-08T03:38:08;6.72;;;3.90;;
40122;SDS011;25832;45.490;4.912;2023-04-08T03:40:34;8.93;;;3.75;;
40122;SDS011;25832;45.490;4.912;2023-04-08T03:43:00;5.22;;;3.30;;
40122;SDS011;25832;45.490;4.912;2023-04-08T03:45:25;5.82;;;3.22;;
40122;SDS011;25832;45.490;4.912;2023-04-08T03:47:51;7.38;;;3.85;;
40122;SDS011;25832;45.490;4.912;2023-04-08T03:50:16;6.35;;;3.22;;
40122;SDS011;25832;45.490;4.912;2023-04-08T03:52:42;8.77;;;3.92;;
40122;SDS011;25832;45.490;4.912;2023-04-08T03:55:08;5.97;;;3.65;;
40122;SDS011;25832;45.490;4.912;2023-04-08T03:57:33;7.18;;;3.30;;
40122;SDS011;25832;45.490;4.912;2023-04-08T03:59:59;6.22;;;3.30;;
40122;SDS011;25832;45.490;4.912;2023-04-08T04:02:25;6.40;;;3.30;;
40122;SDS011;25832;45.490;4.912;2023-04-08T04:04:50;4.80;;;3.22;;
40122;SDS011;25832;45.490;4.912;2023-04-08T04:07:16;4.88;;;3.08;;
40122;SDS011;25832;45.490;4.912;2023-04-08T04:09:42;5.45;;;3.30;;
40122;SDS011;25832;45.490;4.912;2023-04-08T04:12:07;6.97;;;3.20;;
40122;SDS011;25832;45.490;4.912;2023-04-08T04:14:33;3.90;;;2.83;;
40122;SDS011;25832;45.490;4.912;2023-04-08T04:16:58;6.28;;;3.72;;
40122;SDS011;25832;45.490;4.912;2023-04-08T04:19:24;4.15;;;3.20;;
40122;SDS011;25832;45.490;4.912;2023-04-08T04:21:53;6.18;;;4.07;;
40122;SDS011;25832;45.490;4.912;2023-04-08T04:24:19;5.55;;;3.15;;
40122;SDS011;25832;45.490;4.912;2023-04-08T04:26:44;6.82;;;3.95;;
40122;SDS011;25832;45.490;4.912;2023-04-08T04:29:10;6.15;;;4.03;;
40122;SDS011;25832;45.490;4.912;2023-04-08T04:31:36;6.13;;;3.90;;
40122;SDS011;25832;45.490;4.912;2023-04-08T04:34:01;9.88;;;3.85;;
40122;SDS011;25832;45.490;4.912;2023-04-08T04:36:27;7.30;;;4.15;;
40122;SDS011;25832;45.490;4.912;2023-04-08T04:38:53;6.93;;;4.38;;
40122;SDS011;25832;45.490;4.912;2023-04-08T04:41:18;8.70;;;4.63;;
40122;SDS011;25832;45.490;4.912;2023-04-08T04:43:45;7.53;;;4.22;;
40122;SDS011;25832;45.490;4.912;2023-04-08T04:46:11;5.72;;;3.60;;
40122;SDS011;25832;45.490;4.912;2023-04-08T04:48:37;7.22;;;4.28;;
40122;SDS011;25832;45.490;4.912;2023-04-08T04:51:02;7.47;;;4.20;;
40122;SDS011;25832;45.490;4.912;2023-04-08T04:53:29;8.02;;;4.65;;
40122;SDS011;25832;45.490;4.912;2023-04-08T04:55:55;7.78;;;4.00;;
40122;SDS011;25832;45.490;4.912;2023-04-08T04:58:21;9.30;;;4.80;;
40122;SDS011;25832;45.490;4.912;2023-04-08T05:00:46;8.70;;;4.97;;
40122;SDS011;25832;45.490;4.912;2023-04-08T05:03:12;9.70;;;5.25;;
40122;SDS011;25832;45.490;4.912;2023-04-08T05:05:38;11.60;;;5.13;;
40122;SDS011;25832;45.490;4.912;2023-04-08T05:08:04;11.27;;;5.90;;
40122;SDS011;25832;45.490;4.912;2023-04-08T05:10:31;11.30;;;5.50;;
40122;SDS011;25832;45.490;4.912;2023-04-08T05:12:57;10.57;;;5.18;;
40122;SDS011;25832;45.490;4.912;2023-04-08T05:15:22;12.60;;;5.32;;
40122;SDS011;25832;45.490;4.912;2023-04-08T05:17:48;13.05;;;5.45;;
40122;SDS011;25832;45.490;4.912;2023-04-08T05:20:14;9.63;;;5.43;;
40122;SDS011;25832;45.490;4.912;2023-04-08T05:22:39;10.60;;;5.28;;
40122;SDS011;25832;45.490;4.912;2023-04-08T05:25:06;8.98;;;6.40;;
40122;SDS011;25832;45.490;4.912;2023-04-08T05:27:32;8.55;;;5.55;;
40122;SDS011;25832;45.490;4.912;2023-04-08T05:29:58;7.78;;;4.95;;
40122;SDS011;25832;45.490;4.912;2023-04-08T05:32:24;8.07;;;5.43;;
40122;SDS011;25832;45.490;4.912;2023-04-08T05:34:49;11.20;;;5.80;;
40122;SDS011;25832;45.490;4.912;2023-04-08T05:37:15;9.07;;;5.35;;
40122;SDS011;25832;45.490;4.912;2023-04-08T05:39:40;7.55;;;4.95;;
40122;SDS011;25832;45.490;4.912;2023-04-08T05:42:06;16.52;;;7.88;;
40122;SDS011;25832;45.490;4.912;2023-04-08T05:44:32;28.58;;;14.50;;
40122;SDS011;25832;45.490;4.912;2023-04-08T05:46:58;12.45;;;7.63;;
40122;SDS011;25832;45.490;4.912;2023-04-08T05:49:24;10.80;;;6.10;;
40122;SDS011;25832;45.490;4.912;2023-04-08T05:51:49;7.15;;;4.90;;
40122;SDS011;25832;45.490;4.912;2023-04-08T05:54:15;12.98;;;7.18;;
40122;SDS011;25832;45.490;4.912;2023-04-08T05:56:41;15.35;;;7.65;;
40122;SDS011;25832;45.490;4.912;2023-04-08T05:59:06;13.45;;;6.85;;
40122;SDS011;25832;45.490;4.912;2023-04-08T06:01:32;13.65;;;6.57;;
40122;SDS011;25832;45.490;4.912;2023-04-08T06:03:58;9.23;;;5.13;;
40122;SDS011;25832;45.490;4.912;2023-04-08T06:06:23;9.48;;;5.72;;
40122;SDS011;25832;45.490;4.912;2023-04-08T06:08:52;10.15;;;5.55;;
40122;SDS011;25832;45.490;4.912;2023-04-08T06:11:17;11.77;;;6.07;;
40122;SDS011;25832;45.490;4.912;2023-04-08T06:13:43;10.68;;;5.18;;
40122;SDS011;25832;45.490;4.912;2023-04-08T06:16:09;9.82;;;6.00;;
40122;SDS011;25832;45.490;4.912;2023-04-08T06:18:44;10.73;;;6.85;;
40122;SDS011;25832;45.490;4.912;2023-04-08T06:21:09;10.30;;;5.68;;
40122;SDS011;25832;45.490;4.912;2023-04-08T06:23:35;10.23;;;6.25;;
40122;SDS011;25832;45.490;4.912;2023-04-08T06:26:01;8.07;;;6.15;;
40122;SDS011;25832;45.490;4.912;2023-04-08T06:28:29;10.55;;;6.80;;
40122;SDS011;25832;45.490;4.912;2023-04-08T06:30:56;11.18;;;6.32;;
40122;SDS011;25832;45.490;4.912;2023-04-08T06:33:22;10.27;;;6.63;;
40122;SDS011;25832;45.490;4.912;2023-04-08T06:35:47;12.27;;;7.10;;
40122;SDS011;25832;45.490;4.912;2023-04-08T06:38:13;15.13;;;6.40;;
40122;SDS011;25832;45.490;4.912;2023-04-08T06:40:39;14.52;;;7.55;;
40122;SDS011;25832;45.490;4.912;2023-04-08T06:43:05;10.90;;;7.10;;
40122;SDS011;25832;45.490;4.912;2023-04-08T06:45:34;11.27;;;6.32;;
40122;SDS011;25832;45.490;4.912;2023-04-08T06:47:59;11.77;;;6.18;;
40122;SDS011;25832;45.490;4.912;2023-04-08T06:50:25;13.25;;;7.90;;
40122;SDS011;25832;45.490;4.912;2023-04-08T06:52:51;15.88;;;10.10;;
40122;SDS011;25832;45.490;4.912;2023-04-08T06:55:16;16.55;;;10.02;;
40122;SDS011;25832;45.490;4.912;2023-04-08T06:57:42;15.80;;;8.15;;
40122;SDS011;25832;45.490;4.912;2023-04-08T07:00:08;16.35;;;9.60;;
40122;SDS011;25832;45.490;4.912;2023-04-08T07:02:34;15.50;;;9.48;;
40122;SDS011;25832;45.490;4.912;2023-04-08T07:05:00;15.85;;;10.43;;
40122;SDS011;25832;45.490;4.912;2023-04-08T07:07:25;15.60;;;9.40;;
40122;SDS011;25832;45.490;4.912;2023-04-08T07:09:51;12.10;;;7.70;;
40122;SDS011;25832;45.490;4.912;2023-04-08T07:12:16;14.38;;;7.45;;
40122;SDS011;25832;45.490;4.912;2023-04-08T07:14:42;13.20;;;7.10;;
40122;SDS011;25832;45.490;4.912;2023-04-08T07:17:08;12.32;;;7.45;;
40122;SDS011;25832;45.490;4.912;2023-04-08T07:19:33;10.73;;;6.47;;
40122;SDS011;25832;45.490;4.912;2023-04-08T07:22:00;12.27;;;7.05;;
40122;SDS011;25832;45.490;4.912;2023-04-08T07:24:25;16.17;;;8.57;;
40122;SDS011;25832;45.490;4.912;2023-04-08T07:26:51;11.85;;;8.13;;
40122;SDS011;25832;45.490;4.912;2023-04-08T07:29:17;14.93;;;8.50;;
40122;SDS011;25832;45.490;4.912;2023-04-08T07:31:44;15.95;;;8.20;;
40122;SDS011;25832;45.490;4.912;2023-04-08T07:34:09;15.50;;;8.70;;
40122;SDS011;25832;45.490;4.912;2023-04-08T07:36:36;13.43;;;7.28;;
40122;SDS011;25832;45.490;4.912;2023-04-08T07:39:02;15.48;;;8.30;;
40122;SDS011;25832;45.490;4.912;2023-04-08T07:41:28;11.45;;;7.28;;
40122;SDS011;25832;45.490;4.912;2023-04-08T07:43:53;12.95;;;7.72;;
40122;SDS011;25832;45.490;4.912;2023-04-08T07:46:20;15.23;;;8.38;;
40122;SDS011;25832;45.490;4.912;2023-04-08T07:48:46;12.23;;;8.35;;
40122;SDS011;25832;45.490;4.912;2023-04-08T07:51:11;15.75;;;8.95;;
40122;SDS011;25832;45.490;4.912;2023-04-08T07:53:37;12.68;;;8.10;;
40122;SDS011;25832;45.490;4.912;2023-04-08T07:56:09;16.20;;;8.82;;
40122;SDS011;25832;45.490;4.912;2023-04-08T07:58:36;11.90;;;8.30;;
40122;SDS011;25832;45.490;4.912;2023-04-08T08:01:02;12.50;;;8.93;;
40122;SDS011;25832;45.490;4.912;2023-04-08T08:03:27;15.60;;;9.15;;
40122;SDS011;25832;45.490;4.912;2023-04-08T08:05:53;14.93;;;9.10;;
40122;SDS011;25832;45.490;4.912;2023-04-08T08:08:19;13.90;;;8.50;;
40122;SDS011;25832;45.490;4.912;2023-04-08T08:10:44;21.08;;;10.43;;
40122;SDS011;25832;45.490;4.912;2023-04-08T08:13:10;13.88;;;8.98;;
40122;SDS011;25832;45.490;4.912;2023-04-08T08:15:39;13.02;;;9.07;;
40122;SDS011;25832;45.490;4.912;2023-04-08T08:18:04;14.25;;;9.07;;
40122;SDS011;25832;45.490;4.912;2023-04-08T08:20:30;13.57;;;8.80;;
40122;SDS011;25832;45.490;4.912;2023-04-08T08:22:56;12.48;;;8.52;;
40122;SDS011;25832;45.490;4.912;2023-04-08T08:25:21;14.25;;;9.32;;
40122;SDS011;25832;45.490;4.912;2023-04-08T08:27:47;12.98;;;8.52;;
40122;SDS011;25832;45.490;4.912;2023-04-08T08:30:13;13.23;;;8.18;;
40122;SDS011;25832;45.490;4.912;2023-04-08T08:32:38;10.35;;;7.47;;
40122;SDS011;25832;45.490;4.912;2023-04-08T08:35:04;11.68;;;7.97;;
40122;SDS011;25832;45.490;4.912;2023-04-08T08:37:30;11.05;;;8.20;;
40122;SDS011;25832;45.490;4.912;2023-04-08T08:39:56;17.13;;;9.52;;
40122;SDS011;25832;45.490;4.912;2023-04-08T08:42:22;14.10;;;8.25;;
40122;SDS011;25832;45.490;4.912;2023-04-08T08:44:49;13.40;;;7.75;;
40122;SDS011;25832;45.490;4.912;2023-04-08T08:47:15;16.08;;;8.75;;
40122;SDS011;25832;45.490;4.912;2023-04-08T08:49:41;9.80;;;7.30;;
40122;SDS011;25832;45.490;4.912;2023-04-08T08:52:07;13.23;;;8.02;;
40122;SDS011;25832;45.490;4.912;2023-04-08T08:54:33;11.63;;;7.88;;
40122;SDS011;25832;45.490;4.912;2023-04-08T08:56:59;13.50;;;7.72;;
40122;SDS011;25832;45.490;4.912;2023-04-08T08:59:25;9.32;;;6.65;;
40122;SDS011;25832;45.490;4.912;2023-04-08T09:01:51;12.27;;;6.72;;
40122;SDS011;25832;45.490;4.912;2023-04-08T09:04:17;9.38;;;6.43;;
40122;SDS011;25832;45.490;4.912;2023-04-08T09:06:45;12.70;;;6.28;;
40122;SDS011;25832;45.490;4.912;2023-04-08T09:09:12;10.05;;;6.15;;
40122;SDS011;25832;45.490;4.912;2023-04-08T09:11:42;8.30;;;5.95;;
40122;SDS011;25832;45.490;4.912;2023-04-08T09:14:19;8.95;;;5.97;;
40122;SDS011;25832;45.490;4.912;2023-04-08T09:16:46;9.65;;;6.38;;
40122;SDS011;25832;45.490;4.912;2023-04-08T09:19:11;9.25;;;6.38;;
40122;SDS011;25832;45.490;4.912;2023-04-08T09:21:37;13.98;;;7.47;;
40122;SDS011;25832;45.490;4.912;2023-04-08T09:24:05;9.65;;;5.97;;
40122;SDS011;25832;45.490;4.912;2023-04-08T09:26:31;11.32;;;6.90;;
40122;SDS011;25832;45.490;4.912;2023-04-08T09:29:07;10.27;;;6.20;;
40122;SDS011;25832;45.490;4.912;2023-04-08T09:31:35;7.07;;;4.88;;
40122;SDS011;25832;45.490;4.912;2023-04-08T09:34:15;8.27;;;6.05;;
40122;SDS011;25832;45.490;4.912;2023-04-08T09:36:42;9.05;;;5.72;;
40122;SDS011;25832;45.490;4.912;2023-04-08T09:39:11;10.48;;;5.82;;
40122;SDS011;25832;45.490;4.912;2023-04-08T09:41:37;7.13;;;5.45;;
40122;SDS011;25832;45.490;4.912;2023-04-08T09:44:04;10.07;;;5.80;;
40122;SDS011;25832;45.490;4.912;2023-04-08T10:00:21;9.73;;;5.47;;
40122;SDS011;25832;45.490;4.912;2023-04-08T10:03:09;8.82;;;4.82;;
40122;SDS011;25832;45.490;4.912;2023-04-08T10:05:44;9.07;;;5.75;;
40122;SDS011;25832;45.490;4.912;2023-04-08T10:08:11;8.27;;;4.95;;
40122;SDS011;25832;45.490;4.912;2023-04-08T10:10:38;7.93;;;5.00;;
40122;SDS011;25832;45.490;4.912;2023-04-08T10:13:05;7.78;;;4.85;;
40122;SDS011;25832;45.490;4.912;2023-04-08T10:15:32;8.00;;;5.32;;
40122;SDS011;25832;45.490;4.912;2023-04-08T10:20:49;6.07;;;4.53;;
40122;SDS011;25832;45.490;4.912;2023-04-08T10:23:15;7.20;;;4.60;;
40122;SDS011;25832;45.490;4.912;2023-04-08T10:25:45;7.00;;;4.25;;
40122;SDS011;25832;45.490;4.912;2023-04-08T10:30:51;7.60;;;3.95;;
40122;SDS011;25832;45.490;4.912;2023-04-08T10:38:35;5.63;;;3.38;;
40122;SDS011;25832;45.490;4.912;2023-04-08T10:41:06;6.22;;;3.60;;
40122;SDS011;25832;45.490;4.912;2023-04-08T10:43:32;8.65;;;3.88;;
40122;SDS011;25832;45.490;4.912;2023-04-08T10:45:58;4.93;;;3.78;;
40122;SDS011;25832;45.490;4.912;2023-04-08T10:48:25;5.43;;;2.85;;
40122;SDS011;25832;45.490;4.912;2023-04-08T10:56:07;6.80;;;2.60;;
40122;SDS011;25832;45.490;4.912;2023-04-08T10:58:35;4.53;;;2.92;;
40122;SDS011;25832;45.490;4.912;2023-04-08T11:01:06;5.03;;;3.53;;
40122;SDS011;25832;45.490;4.912;2023-04-08T11:03:32;5.45;;;4.55;;
40122;SDS011;25832;45.490;4.912;2023-04-08T11:05:59;5.90;;;3.63;;
40122;SDS011;25832;45.490;4.912;2023-04-08T11:08:27;6.80;;;3.53;;
40122;SDS011;25832;45.490;4.912;2023-04-08T11:10:53;3.97;;;3.25;;
40122;SDS011;25832;45.490;4.912;2023-04-08T11:13:19;5.65;;;3.13;;
40122;SDS011;25832;45.490;4.912;2023-04-08T11:15:46;4.28;;;2.65;;
40122;SDS011;25832;45.490;4.912;2023-04-08T11:18:12;4.13;;;3.25;;
40122;SDS011;25832;45.490;4.912;2023-04-08T11:20:38;8.07;;;3.00;;
40122;SDS011;25832;45.490;4.912;2023-04-08T11:23:10;7.03;;;3.40;;
40122;SDS011;25832;45.490;4.912;2023-04-08T11:25:40;8.93;;;3.78;;
40122;SDS011;25832;45.490;4.912;2023-04-08T11:28:06;7.47;;;3.67;;
40122;SDS011;25832;45.490;4.912;2023-04-08T11:30:33;4.97;;;3.40;;
40122;SDS011;25832;45.490;4.912;2023-04-08T11:32:59;6.50;;;3.33;;
40122;SDS011;25832;45.490;4.912;2023-04-08T11:35:28;5.07;;;3.55;;
40122;SDS011;25832;45.490;4.912;2023-04-08T11:37:55;7.43;;;3.93;;
40122;SDS011;25832;45.490;4.912;2023-04-08T11:40:21;4.32;;;3.17;;
40122;SDS011;25832;45.490;4.912;2023-04-08T11:42:48;4.55;;;3.53;;
40122;SDS011;25832;45.490;4.912;2023-04-08T11:45:18;5.13;;;3.42;;
40122;SDS011;25832;45.490;4.912;2023-04-08T11:47:45;5.40;;;3.90;;
40122;SDS011;25832;45.490;4.912;2023-04-08T11:50:17;4.90;;;3.60;;
40122;SDS011;25832;45.490;4.912;2023-04-08T11:52:50;5.32;;;4.05;;
40122;SDS011;25832;45.490;4.912;2023-04-08T11:55:27;5.57;;;3.70;;
40122;SDS011;25832;45.490;4.912;2023-04-08T11:57:55;5.43;;;3.22;;
40122;SDS011;25832;45.490;4.912;2023-04-08T12:00:22;3.40;;;2.70;;
40122;SDS011;25832;45.490;4.912;2023-04-08T12:02:48;4.38;;;2.70;;
40122;SDS011;25832;45.490;4.912;2023-04-08T12:05:14;5.32;;;3.05;;
40122;SDS011;25832;45.490;4.912;2023-04-08T12:07:40;3.80;;;3.00;;
40122;SDS011;25832;45.490;4.912;2023-04-08T12:10:07;5.75;;;3.20;;
40122;SDS011;25832;45.490;4.912;2023-04-08T12:12:33;5.63;;;3.40;;
40122;SDS011;25832;45.490;4.912;2023-04-08T12:14:59;3.65;;;2.53;;
40122;SDS011;25832;45.490;4.912;2023-04-08T12:17:25;5.55;;;3.15;;
40122;SDS011;25832;45.490;4.912;2023-04-08T12:19:50;4.53;;;3.03;;
40122;SDS011;25832;45.490;4.912;2023-04-08T12:22:16;4.95;;;2.63;;
40122;SDS011;25832;45.490;4.912;2023-04-08T12:24:41;6.78;;;3.20;;
40122;SDS011;25832;45.490;4.912;2023-04-08T12:27:07;3.53;;;2.80;;
40122;SDS011;25832;45.490;4.912;2023-04-08T12:29:33;2.97;;;2.30;;
40122;SDS011;25832;45.490;4.912;2023-04-08T12:31:58;3.53;;;2.40;;
40122;SDS011;25832;45.490;4.912;2023-04-08T12:34:24;11.52;;;2.92;;
40122;SDS011;25832;45.490;4.912;2023-04-08T12:36:50;4.57;;;2.45;;
40122;SDS011;25832;45.490;4.912;2023-04-08T12:39:15;8.27;;;3.33;;
40122;SDS011;25832;45.490;4.912;2023-04-08T12:41:41;3.55;;;2.58;;
40122;SDS011;25832;45.490;4.912;2023-04-08T12:44:07;2.20;;;1.65;;
40122;SDS011;25832;45.490;4.912;2023-04-08T12:46:32;4.72;;;2.65;;
40122;SDS011;25832;45.490;4.912;2023-04-08T12:48:58;4.18;;;2.42;;
40122;SDS011;25832;45.490;4.912;2023-04-08T12:51:24;4.35;;;2.20;;
40122;SDS011;25832;45.490;4.912;2023-04-08T12:53:50;2.63;;;1.70;;
40122;SDS011;25832;45.490;4.912;2023-04-08T12:56:16;4.20;;;1.95;;
40122;SDS011;25832;45.490;4.912;2023-04-08T12:58:42;2.20;;;1.70;;
40122;SDS011;25832;45.490;4.912;2023-04-08T13:01:07;2.20;;;1.90;;
40122;SDS011;25832;45.490;4.912;2023-04-08T13:03:33;2.38;;;1.90;;
40122;SDS011;25832;45.490;4.912;2023-04-08T13:06:00;3.60;;;1.85;;
40122;SDS011;25832;45.490;4.912;2023-04-08T13:08:26;3.85;;;2.28;;
40122;SDS011;25832;45.490;4.912;2023-04-08T13:10:52;2.83;;;1.80;;
40122;SDS011;25832;45.490;4.912;2023-04-08T13:13:18;4.18;;;2.28;;
40122;SDS011;25832;45.490;4.912;2023-04-08T13:15:44;2.30;;;1.35;;
40122;SDS011;25832;45.490;4.912;2023-04-08T13:18:11;2.47;;;1.88;;
40122;SDS011;25832;45.490;4.912;2023-04-08T13:20:37;3.00;;;1.73;;
40122;SDS011;25832;45.490;4.912;2023-04-08T13:23:03;2.58;;;1.60;;
40122;SDS011;25832;45.490;4.912;2023-04-08T13:25:28;3.78;;;1.75;;
40122;SDS011;25832;45.490;4.912;2023-04-08T13:27:54;1.83;;;1.52;;
40122;SDS011;25832;45.490;4.912;2023-04-08T13:30:20;2.33;;;1.50;;
40122;SDS011;25832;45.490;4.912;2023-04-08T13:32:45;1.92;;;1.45;;
40122;SDS011;25832;45.490;4.912;2023-04-08T13:35:11;2.53;;;1.60;;
40122;SDS011;25832;45.490;4.912;2023-04-08T13:37:37;3.47;;;1.70;;
40122;SDS011;25832;45.490;4.912;2023-04-08T13:40:03;2.65;;;1.77;;
40122;SDS011;25832;45.490;4.912;2023-04-08T13:42:29;5.28;;;1.85;;
40122;SDS011;25832;45.490;4.912;2023-04-08T13:44:58;2.20;;;1.63;;
40122;SDS011;25832;45.490;4.912;2023-04-08T13:47:23;2.53;;;1.88;;
40122;SDS011;25832;45.490;4.912;2023-04-08T13:49:49;2.55;;;1.65;;
40122;SDS011;25832;45.490;4.912;2023-04-08T13:52:15;2.22;;;1.55;;
40122;SDS011;25832;45.490;4.912;2023-04-08T13:54:41;2.22;;;1.55;;
40122;SDS011;25832;45.490;4.912;2023-04-08T13:57:06;3.97;;;1.88;;
40122;SDS011;25832;45.490;4.912;2023-04-08T13:59:32;2.50;;;1.75;;
40122;SDS011;25832;45.490;4.912;2023-04-08T14:01:58;4.72;;;1.50;;
40122;SDS011;25832;45.490;4.912;2023-04-08T14:04:23;4.28;;;1.63;;
40122;SDS011;25832;45.490;4.912;2023-04-08T14:06:49;1.65;;;1.33;;
40122;SDS011;25832;45.490;4.912;2023-04-08T14:09:17;2.40;;;1.52;;
40122;SDS011;25832;45.490;4.912;2023-04-08T14:11:43;2.60;;;1.52;;
40122;SDS011;25832;45.490;4.912;2023-04-08T14:14:09;3.60;;;2.05;;
40122;SDS011;25832;45.490;4.912;2023-04-08T14:16:34;2.92;;;1.77;;
40122;SDS011;25832;45.490;4.912;2023-04-08T14:19:00;2.83;;;1.20;;
40122;SDS011;25832;45.490;4.912;2023-04-08T14:21:27;2.15;;;1.40;;
40122;SDS011;25832;45.490;4.912;2023-04-08T14:23:53;3.80;;;1.42;;
40122;SDS011;25832;45.490;4.912;2023-04-08T14:26:18;1.73;;;1.48;;
40122;SDS011;25832;45.490;4.912;2023-04-08T14:28:45;2.85;;;1.40;;
40122;SDS011;25832;45.490;4.912;2023-04-08T14:31:12;3.22;;;1.25;;
40122;SDS011;25832;45.490;4.912;2023-04-08T14:33:37;1.77;;;1.02;;
40122;SDS011;25832;45.490;4.912;2023-04-08T14:36:03;1.83;;;1.20;;
40122;SDS011;25832;45.490;4.912;2023-04-08T14:38:30;2.33;;;1.40;;
40122;SDS011;25832;45.490;4.912;2023-04-08T14:40:56;4.40;;;1.10;;
40122;SDS011;25832;45.490;4.912;2023-04-08T14:43:21;1.48;;;1.15;;
40122;SDS011;25832;45.490;4.912;2023-04-08T14:45:48;2.90;;;1.20;;
40122;SDS011;25832;45.490;4.912;2023-04-08T14:48:14;2.33;;;1.00;;
40122;SDS011;25832;45.490;4.912;2023-04-08T14:50:40;1.73;;;1.30;;
40122;SDS011;25832;45.490;4.912;2023-04-08T14:53:06;1.65;;;0.80;;
40122;SDS011;25832;45.490;4.912;2023-04-08T14:55:31;1.38;;;1.00;;
40122;SDS011;25832;45.490;4.912;2023-04-08T14:57:57;3.25;;;1.25;;
40122;SDS011;25832;45.490;4.912;2023-04-08T15:00:23;2.05;;;1.00;;
40122;SDS011;25832;45.490;4.912;2023-04-08T15:02:48;1.65;;;1.10;;
40122;SDS011;25832;45.490;4.912;2023-04-08T15:05:14;1.88;;;1.23;;
40122;SDS011;25832;45.490;4.912;2023-04-08T15:07:40;3.60;;;1.60;;
40122;SDS011;25832;45.490;4.912;2023-04-08T15:10:07;3.33;;;1.27;;
40122;SDS011;25832;45.490;4.912;2023-04-08T15:12:33;2.28;;;1.20;;
40122;SDS011;25832;45.490;4.912;2023-04-08T15:14:58;2.95;;;1.05;;